Manitowoc, Wisconsin
Current Conditions -  °F | °C
As of 5:56 AM on Thursday 18 Dec 2014 (Local Time) from KMTW Reporting Station
Overcast Overcast  
Wind Chill: 19°   Ceiling: 1500
Heat Index: 28°   Visibility: 10mi
Dew Point: 24°   Wind: 9mph
Humidity: 85%   Direction: 360°N
Pressure: 30.25"   Gusts: NA
Location:  44.11°N, 87.66°W
Report Text: KMTW 181156Z AUTO 36008KT 10SM OVC015 M02/M04 A3025 RMK AO2 SLP272 T10221044 11022 21039 53003 FZRANO
Loading
Personal Weather Stations






























Interactive Weather Map New forecast layout! Learn more

10-Day Weather Forecast

Advertisements
Track Severe Weather on mobile